Tuesday, March 19, 2019, 11:23 PM EDT
Back to Local

KIPT, Williamsport-lycoming County

Location: Montoursville, PA, United States Lat: 41.25
Local Time: 11:23 PM EDT ( 3:23 GMT) Lon: -76.917
Time Zone: US/Eastern Elev: 528 ft

Show me the last for .
Show Decoded

2019-03-19 22:54 METAR KIPT 200254Z AUTO 00000KT 10SM CLR M01/M07 A3036 RMK AO2 SLP286 T10061072
                 51007 =
2019-03-19 21:54 METAR KIPT 200154Z 00000KT 10SM CLR 01/M08 A3036 RMK AO2 SLP285 T00111078 =
2019-03-19 20:54 METAR KIPT 200054Z 00000KT 10SM CLR 03/M07 A3035 RMK AO2 SLP284 T00281067 =
2019-03-19 19:54 METAR KIPT 192354Z 00000KT 10SM CLR 03/M05 A3034 RMK AO2 SLP280 T00281050 10100
                 20028 55002 =
2019-03-19 18:54 METAR KIPT 192254Z 00000KT 10SM BKN090 08/M12 A3033 RMK AO2 SLP276 T00831117 =
2019-03-19 17:54 METAR KIPT 192154Z 28006KT 10SM FEW085 08/M12 A3033 RMK AO2 SLP277 T00781117 =
2019-03-19 16:54 METAR KIPT 192054Z 24011KT 10SM OVC085 09/M11 A3034 RMK AO2 SLP280 T00891111
                 56018 =
2019-03-19 15:54 METAR KIPT 191954Z 26008KT 10SM BKN080 08/M11 A3036 RMK AO2 SLP285 T00831111 =
2019-03-19 14:54 METAR KIPT 191854Z 25011G19KT 10SM BKN080 09/M11 A3037 RMK AO2 SLP289 T00941111
                 =
2019-03-19 13:54 METAR KIPT 191754Z VRB05KT 10SM OVC075 08/M10 A3040 RMK AO2 SLP298 T00781100
                 10083 21044 58014 =
2019-03-19 12:54 METAR KIPT 191654Z 27006KT 10SM CLR 07/M08 A3041 RMK AO2 SLP304 T00721083 =
2019-03-19 11:54 METAR KIPT 191554Z 25007KT 10SM CLR 06/M08 A3042 RMK AO2 SLP308 T00611078 =
2019-03-19 10:54 METAR KIPT 191454Z 25006KT 10SM CLR 04/M08 A3044 RMK AO2 SLP312 T00391078 50006
                 =
2019-03-19 09:54 METAR KIPT 191354Z VRB04KT 10SM CLR 01/M06 A3044 RMK AO2 SLP312 T00111061 =
2019-03-19 08:54 METAR KIPT 191254Z 00000KT 10SM CLR M02/M06 A3043 RMK AO2 SLP311 T10171056 =
2019-03-19 07:54 METAR KIPT 191154Z 00000KT 10SM CLR M04/M07 A3042 RMK AO2 SLP307 T10441072 11022
                 21061 53018 =
2019-03-19 06:54 METAR KIPT 191054Z 00000KT 10SM CLR M06/M08 A3039 RMK AO2 SLP299 T10561078 =
2019-03-19 05:54 METAR KIPT 190954Z AUTO 00000KT 10SM CLR M05/M08 A3038 RMK AO2 SLP295 T10501078
                 $ =
2019-03-19 04:54 METAR KIPT 190854Z AUTO 00000KT 10SM CLR M04/M08 A3037 RMK AO2 SLP288 T10441078
                 55003 $ =
2019-03-19 03:54 METAR KIPT 190754Z AUTO 00000KT 10SM CLR M04/M09 A3036 RMK AO2 SLP287 T10391089
                 $ =
2019-03-19 02:54 METAR KIPT 190654Z AUTO 33003KT 10SM CLR M03/M08 A3038 RMK AO2 SLP292 T10331078
                 $ =
2019-03-19 01:54 METAR KIPT 190554Z AUTO 00000KT 10SM CLR M03/M08 A3038 RMK AO2 SLP291 T10281083
                 10039 21028 51010 $ =
2019-03-19 00:54 METAR KIPT 190454Z AUTO 35003KT 10SM CLR M02/M08 A3037 RMK AO2 SLP288 T10171078
                 400781044 $ =
2019-03-18 23:54 METAR KIPT 190354Z AUTO 00000KT 10SM CLR M02/M08 A3036 RMK AO2 SLP286 T10171083
                 $ =

Support USWX by starting your Amazon purchase here.